Hitachimaru — JD2063 — position and weather

sailwx.info

Track history (hours):
 
Tides and Currents Weather Stations Pressure Air Temp Water Temp Dewpoint Dewpoint Depression Visibility Wind Speed Wind Dir Waves Ship Positions

Hitachimaru

Last reported at 2015-Mar-29 09:13 UTC. Time now 2015-Mar-29 19:34 UTC.
Position N 34°37' E 135°01'.

Length 83 m; draft 4.5 m.

Type: Cargo ship. MMSI: 431301756.

Date/timePositionNaut miles runAvg speedWind from/ knotsBaromVisibWave heightAir tempDewpointWater temp
2015-Mar-29 09:13N 34°37' E 135°01'710.1
2015-Mar-29 08:33N 34°31' E 135°04'1312.4
2015-Mar-29 07:33N 34°19' E 134°60'1111.5
2015-Mar-29 06:33N 34°08' E 134°60'228 9.4
2015-Mar-28 06:16N 34°59' E 139°29'810.7
2015-Mar-28 05:33N 35°03' E 139°36'1111.1
2015-Mar-28 04:33N 35°11' E 139°46'1111.4
2015-Mar-28 03:33N 35°22' E 139°42'7 7.3
2015-Mar-28 02:33N 35°22' E 139°51'0 0.1
2015-Mar-28 01:24N 35°22' E 139°51'0 0.0
2015-Mar-28 00:24N 35°22' E 139°51'0 0.0
2015-Mar-27 23:29N 35°22' E 139°51'0 0.0
2015-Mar-27 22:29N 35°22' E 139°51'0 0.0
2015-Mar-27 21:32N 35°22' E 139°51'0 0.0
2015-Mar-27 20:29N 35°22' E 139°51'2 1.7
2015-Mar-27 19:31N 35°22' E 139°49'0 0.0
2015-Mar-27 18:31N 35°22' E 139°49'0 0.0
2015-Mar-27 17:31N 35°22' E 139°49'0 0.0
2015-Mar-27 16:31N 35°22' E 139°49'0 0.0
2015-Mar-27 15:31N 35°22' E 139°49'0 0.0
2015-Mar-27 14:31N 35°22' E 139°49'0 0.0
2015-Mar-27 13:31N 35°22' E 139°49'0 0.0
2015-Mar-27 12:33N 35°22' E 139°49'0 0.0
2015-Mar-27 11:34N 35°22' E 139°49'0 0.0
2015-Mar-27 10:33N 35°22' E 139°49'0 0.0
2015-Mar-27 09:34N 35°22' E 139°49'0 0.0
2015-Mar-27 08:33N 35°22' E 139°49'0 0.0
2015-Mar-27 07:33N 35°22' E 139°49'0 0.0
2015-Mar-27 06:33N 35°22' E 139°49'1 1.3
2015-Mar-27 05:34N 35°23' E 139°48'8 7.9
2015-Mar-27 04:34N 35°24' E 139°39'0 0.5
2015-Mar-27 03:31N 35°23' E 139°38'0 0.0
2015-Mar-27 02:31N 35°23' E 139°38'0 0.0
2015-Mar-27 01:31N 35°23' E 139°38'0 0.0
2015-Mar-27 00:31N 35°23' E 139°38'0 0.0
2015-Mar-26 23:31N 35°23' E 139°38'0 0.2
2015-Mar-26 22:33N 35°23' E 139°38'1 1.0
2015-Mar-26 21:32N 35°23' E 139°40'0 0.1
2015-Mar-26 20:33N 35°23' E 139°40'1010.2
2015-Mar-26 19:33N 35°29' E 139°50'1211.6
2015-Mar-26 18:33N 35°39' E 139°58'2 2.0
2015-Mar-26 17:31N 35°40' E 139°57'0 0.0
2015-Mar-26 16:25N 35°40' E 139°57'0 0.0
2015-Mar-26 15:31N 35°40' E 139°57'0 0.0
2015-Mar-26 14:25N 35°40' E 139°57'0 0.1
2015-Mar-26 13:33N 35°40' E 139°57'7 6.6
2015-Mar-26 12:33N 35°34' E 139°56'1212.1
2015-Mar-26 11:32N 35°24' E 139°46'1111.2
2015-Mar-26 10:33N 35°13' E 139°47'1211.6
2015-Mar-26 09:33N 35°03' E 139°41'24010.3
2015-Mar-25 10:15N 33°58' E 135°00'912.9
2015-Mar-25 09:33N 34°07' E 134°59'1812.6
2015-Mar-25 08:07N 34°25' E 135°05'813.3
2015-Mar-25 07:32N 34°30' E 135°12'1211.9
2015-Mar-25 06:32N 34°36' E 135°25'2 0.2
2015-Mar-24 20:28N 34°35' E 135°27'1 1.1
2015-Mar-24 19:33N 34°35' E 135°28'0 0.0
2015-Mar-24 18:33N 34°35' E 135°28'0 0.0
2015-Mar-24 17:33N 34°35' E 135°28'0 0.0
2015-Mar-24 16:33N 34°35' E 135°28'0 0.0
2015-Mar-24 15:32N 34°35' E 135°28'0 0.1
2015-Mar-24 14:33N 34°35' E 135°28'0 0.0
2015-Mar-24 13:33N 34°35' E 135°28'0 0.0
2015-Mar-24 12:33N 34°35' E 135°28'0 0.0
2015-Mar-24 11:32N 34°35' E 135°28'0 0.0
2015-Mar-24 10:33N 34°35' E 135°28'0 0.0
2015-Mar-24 09:33N 34°35' E 135°28'0 0.0
2015-Mar-24 08:33N 34°35' E 135°28'0 0.0
2015-Mar-24 07:33N 34°35' E 135°28'0 0.0
2015-Mar-24 06:33N 34°35' E 135°28'0 0.0
2015-Mar-24 05:32N 34°35' E 135°28'0 0.3
2015-Mar-24 04:33N 34°35' E 135°27'1 0.1
2015-Mar-23 13:33N 34°34' E 135°27'3 3.4
2015-Mar-23 12:32N 34°36' E 135°23'0 0.1
2015-Mar-23 11:26N 34°36' E 135°23'0 0.0
2015-Mar-23 10:32N 34°36' E 135°23'0 0.0
2015-Mar-23 09:26N 34°36' E 135°23'0 0.1
2015-Mar-23 08:32N 34°36' E 135°23'0 0.0
2015-Mar-23 07:32N 34°36' E 135°23'0 0.0
2015-Mar-23 06:32N 34°36' E 135°23'0 0.0
2015-Mar-23 05:25N 34°36' E 135°23'910.3
2015-Mar-23 04:31N 34°35' E 135°12'1312.9
2015-Mar-23 03:33N 34°36' E 134°57'4 0.2
2015-Mar-22 04:32N 34°37' E 135°02'9 9.5
2015-Mar-22 03:33N 34°28' E 135°03'1211.7
2015-Mar-22 02:30N 34°16' E 134°59'1111.8
2015-Mar-22 01:33N 34°05' E 135°00'23510.2
2015-Mar-21 02:33N 35°03' E 139°37'1212.1
2015-Mar-21 01:33N 35°12' E 139°46'1212.0
2015-Mar-21 00:33N 35°24' E 139°43'7 7.2
2015-Mar-20 23:33N 35°22' E 139°51'0 0.0
2015-Mar-20 22:32N 35°22' E 139°51'0 0.0
2015-Mar-20 21:32N 35°22' E 139°51'0 0.0
2015-Mar-20 20:32N 35°22' E 139°51'0 0.0
2015-Mar-20 19:32N 35°22' E 139°51'0 0.0
2015-Mar-20 18:32N 35°22' E 139°51'0 0.0
2015-Mar-20 17:29N 35°22' E 139°51'0 0.0
2015-Mar-20 16:29N 35°22' E 139°51'0 0.0
2015-Mar-20 15:32N 35°22' E 139°51'0 0.0
2015-Mar-20 14:32N 35°22' E 139°51'2 1.6
2015-Mar-20 13:33N 35°22' E 139°49'0 0.0
2015-Mar-20 12:33N 35°22' E 139°49'0 0.0
2015-Mar-20 11:33N 35°22' E 139°49'0 0.0
2015-Mar-20 10:33N 35°22' E 139°49'0 0.0
2015-Mar-20 09:33N 35°22' E 139°49'0 0.0
2015-Mar-20 08:33N 35°22' E 139°49'0 0.0
2015-Mar-20 07:33N 35°22' E 139°49'0 0.0
2015-Mar-20 06:30N 35°22' E 139°49'0 0.0
2015-Mar-20 05:30N 35°22' E 139°49'0 0.0
2015-Mar-20 04:33N 35°22' E 139°49'0 0.0
2015-Mar-20 03:30N 35°22' E 139°49'0 0.0
2015-Mar-20 02:33N 35°22' E 139°49'0 0.0
2015-Mar-20 01:33N 35°22' E 139°49'0 0.0
2015-Mar-20 00:30N 35°22' E 139°49'0 0.0
2015-Mar-19 23:33N 35°22' E 139°49'0 0.0
2015-Mar-19 22:33N 35°22' E 139°49'0 0.0
2015-Mar-19 21:30N 35°22' E 139°49'0 0.0
2015-Mar-19 20:33N 35°22' E 139°49'0 0.0
2015-Mar-19 19:30N 35°22' E 139°49'0 0.0
2015-Mar-19 18:33N 35°22' E 139°49'0 0.0
2015-Mar-19 17:33N 35°22' E 139°49'0 0.0
2015-Mar-19 16:33N 35°22' E 139°49'0 0.0
2015-Mar-19 15:33N 35°22' E 139°49'0 0.0
2015-Mar-19 14:33N 35°22' E 139°49'2 2.2
2015-Mar-19 13:33N 35°24' E 139°49'1413.0
2015-Mar-19 12:30N 35°36' E 139°57'  
Track history (hours):
 
Tides and Currents Weather Stations Pressure Air Temp Water Temp Dewpoint Dewpoint Depression Visibility Wind Speed Wind Dir Waves Ship Positions

Hitachimaru

Last reported at 2015-Mar-29 09:13 UTC. Time now 2015-Mar-29 19:34 UTC.
Position N 34°37' E 135°01'.

Length 83 m; draft 4.5 m.

Type: Cargo ship. MMSI: 431301756.

Date/timePositionNaut miles runAvg speedWind from/ knotsBaromVisibWave heightAir tempDewpointWater temp
2015-Mar-29 09:13N 34°37' E 135°01'710.1
2015-Mar-29 08:33N 34°31' E 135°04'1312.4
2015-Mar-29 07:33N 34°19' E 134°60'1111.5
2015-Mar-29 06:33N 34°08' E 134°60'228 9.4
2015-Mar-28 06:16N 34°59' E 139°29'810.7
2015-Mar-28 05:33N 35°03' E 139°36'1111.1
2015-Mar-28 04:33N 35°11' E 139°46'1111.4
2015-Mar-28 03:33N 35°22' E 139°42'7 7.3
2015-Mar-28 02:33N 35°22' E 139°51'0 0.1
2015-Mar-28 01:24N 35°22' E 139°51'0 0.0
2015-Mar-28 00:24N 35°22' E 139°51'0 0.0
2015-Mar-27 23:29N 35°22' E 139°51'0 0.0
2015-Mar-27 22:29N 35°22' E 139°51'0 0.0
2015-Mar-27 21:32N 35°22' E 139°51'0 0.0
2015-Mar-27 20:29N 35°22' E 139°51'2 1.7
2015-Mar-27 19:31N 35°22' E 139°49'0 0.0
2015-Mar-27 18:31N 35°22' E 139°49'0 0.0
2015-Mar-27 17:31N 35°22' E 139°49'0 0.0
2015-Mar-27 16:31N 35°22' E 139°49'0 0.0
2015-Mar-27 15:31N 35°22' E 139°49'0 0.0
2015-Mar-27 14:31N 35°22' E 139°49'0 0.0
2015-Mar-27 13:31N 35°22' E 139°49'0 0.0
2015-Mar-27 12:33N 35°22' E 139°49'0 0.0
2015-Mar-27 11:34N 35°22' E 139°49'0 0.0
2015-Mar-27 10:33N 35°22' E 139°49'0 0.0
2015-Mar-27 09:34N 35°22' E 139°49'0 0.0
2015-Mar-27 08:33N 35°22' E 139°49'0 0.0
2015-Mar-27 07:33N 35°22' E 139°49'0 0.0
2015-Mar-27 06:33N 35°22' E 139°49'1 1.3
2015-Mar-27 05:34N 35°23' E 139°48'8 7.9
2015-Mar-27 04:34N 35°24' E 139°39'0 0.5
2015-Mar-27 03:31N 35°23' E 139°38'0 0.0
2015-Mar-27 02:31N 35°23' E 139°38'0 0.0
2015-Mar-27 01:31N 35°23' E 139°38'0 0.0
2015-Mar-27 00:31N 35°23' E 139°38'0 0.0
2015-Mar-26 23:31N 35°23' E 139°38'0 0.2
2015-Mar-26 22:33N 35°23' E 139°38'1 1.0
2015-Mar-26 21:32N 35°23' E 139°40'0 0.1
2015-Mar-26 20:33N 35°23' E 139°40'1010.2
2015-Mar-26 19:33N 35°29' E 139°50'1211.6
2015-Mar-26 18:33N 35°39' E 139°58'2 2.0
2015-Mar-26 17:31N 35°40' E 139°57'0 0.0
2015-Mar-26 16:25N 35°40' E 139°57'0 0.0
2015-Mar-26 15:31N 35°40' E 139°57'0 0.0
2015-Mar-26 14:25N 35°40' E 139°57'0 0.1
2015-Mar-26 13:33N 35°40' E 139°57'7 6.6
2015-Mar-26 12:33N 35°34' E 139°56'1212.1
2015-Mar-26 11:32N 35°24' E 139°46'1111.2
2015-Mar-26 10:33N 35°13' E 139°47'1211.6
2015-Mar-26 09:33N 35°03' E 139°41'24010.3
2015-Mar-25 10:15N 33°58' E 135°00'912.9
2015-Mar-25 09:33N 34°07' E 134°59'1812.6
2015-Mar-25 08:07N 34°25' E 135°05'813.3
2015-Mar-25 07:32N 34°30' E 135°12'1211.9
2015-Mar-25 06:32N 34°36' E 135°25'2 0.2
2015-Mar-24 20:28N 34°35' E 135°27'1 1.1
2015-Mar-24 19:33N 34°35' E 135°28'0 0.0
2015-Mar-24 18:33N 34°35' E 135°28'0 0.0
2015-Mar-24 17:33N 34°35' E 135°28'0 0.0
2015-Mar-24 16:33N 34°35' E 135°28'0 0.0
2015-Mar-24 15:32N 34°35' E 135°28'0 0.1
2015-Mar-24 14:33N 34°35' E 135°28'0 0.0
2015-Mar-24 13:33N 34°35' E 135°28'0 0.0
2015-Mar-24 12:33N 34°35' E 135°28'0 0.0
2015-Mar-24 11:32N 34°35' E 135°28'0 0.0
2015-Mar-24 10:33N 34°35' E 135°28'0 0.0
2015-Mar-24 09:33N 34°35' E 135°28'0 0.0
2015-Mar-24 08:33N 34°35' E 135°28'0 0.0
2015-Mar-24 07:33N 34°35' E 135°28'0 0.0
2015-Mar-24 06:33N 34°35' E 135°28'0 0.0
2015-Mar-24 05:32N 34°35' E 135°28'0 0.3
2015-Mar-24 04:33N 34°35' E 135°27'1 0.1
2015-Mar-23 13:33N 34°34' E 135°27'3 3.4
2015-Mar-23 12:32N 34°36' E 135°23'0 0.1
2015-Mar-23 11:26N 34°36' E 135°23'0 0.0
2015-Mar-23 10:32N 34°36' E 135°23'0 0.0
2015-Mar-23 09:26N 34°36' E 135°23'0 0.1
2015-Mar-23 08:32N 34°36' E 135°23'0 0.0
2015-Mar-23 07:32N 34°36' E 135°23'0 0.0
2015-Mar-23 06:32N 34°36' E 135°23'0 0.0
2015-Mar-23 05:25N 34°36' E 135°23'910.3
2015-Mar-23 04:31N 34°35' E 135°12'1312.9
2015-Mar-23 03:33N 34°36' E 134°57'4 0.2
2015-Mar-22 04:32N 34°37' E 135°02'9 9.5
2015-Mar-22 03:33N 34°28' E 135°03'1211.7
2015-Mar-22 02:30N 34°16' E 134°59'1111.8
2015-Mar-22 01:33N 34°05' E 135°00'23510.2
2015-Mar-21 02:33N 35°03' E 139°37'1212.1
2015-Mar-21 01:33N 35°12' E 139°46'1212.0
2015-Mar-21 00:33N 35°24' E 139°43'7 7.2
2015-Mar-20 23:33N 35°22' E 139°51'0 0.0
2015-Mar-20 22:32N 35°22' E 139°51'0 0.0
2015-Mar-20 21:32N 35°22' E 139°51'0 0.0
2015-Mar-20 20:32N 35°22' E 139°51'0 0.0
2015-Mar-20 19:32N 35°22' E 139°51'0 0.0
2015-Mar-20 18:32N 35°22' E 139°51'0 0.0
2015-Mar-20 17:29N 35°22' E 139°51'0 0.0
2015-Mar-20 16:29N 35°22' E 139°51'0 0.0
2015-Mar-20 15:32N 35°22' E 139°51'0 0.0
2015-Mar-20 14:32N 35°22' E 139°51'2 1.6
2015-Mar-20 13:33N 35°22' E 139°49'0 0.0
2015-Mar-20 12:33N 35°22' E 139°49'0 0.0
2015-Mar-20 11:33N 35°22' E 139°49'0 0.0
2015-Mar-20 10:33N 35°22' E 139°49'0 0.0
2015-Mar-20 09:33N 35°22' E 139°49'0 0.0
2015-Mar-20 08:33N 35°22' E 139°49'0 0.0
2015-Mar-20 07:33N 35°22' E 139°49'0 0.0
2015-Mar-20 06:30N 35°22' E 139°49'0 0.0
2015-Mar-20 05:30N 35°22' E 139°49'0 0.0
2015-Mar-20 04:33N 35°22' E 139°49'0 0.0
2015-Mar-20 03:30N 35°22' E 139°49'0 0.0
2015-Mar-20 02:33N 35°22' E 139°49'0 0.0
2015-Mar-20 01:33N 35°22' E 139°49'0 0.0
2015-Mar-20 00:30N 35°22' E 139°49'0 0.0
2015-Mar-19 23:33N 35°22' E 139°49'0 0.0
2015-Mar-19 22:33N 35°22' E 139°49'0 0.0
2015-Mar-19 21:30N 35°22' E 139°49'0 0.0
2015-Mar-19 20:33N 35°22' E 139°49'0 0.0
2015-Mar-19 19:30N 35°22' E 139°49'0 0.0
2015-Mar-19 18:33N 35°22' E 139°49'0 0.0
2015-Mar-19 17:33N 35°22' E 139°49'0 0.0
2015-Mar-19 16:33N 35°22' E 139°49'0 0.0
2015-Mar-19 15:33N 35°22' E 139°49'0 0.0
2015-Mar-19 14:33N 35°22' E 139°49'2 2.2
2015-Mar-19 13:33N 35°24' E 139°49'1413.0
2015-Mar-19 12:30N 35°36' E 139°57'  

Dump ship's entire track history